createdAt,value
2023-05-16T00:01:23.257Z,8.98
2023-05-16T00:03:52.400Z,9.09
2023-05-16T00:06:20.186Z,9.10
2023-05-16T00:08:48.112Z,9.01
2023-05-16T00:11:17.447Z,8.99
2023-05-16T00:13:47.772Z,9.09
2023-05-16T00:16:15.677Z,9.36
2023-05-16T00:18:45.754Z,9.58
2023-05-16T00:21:14.857Z,9.66
2023-05-16T00:23:43.163Z,9.60
2023-05-16T00:26:10.777Z,9.55
2023-05-16T00:28:41.652Z,9.66
2023-05-16T00:31:09.256Z,9.81
2023-05-16T00:33:37.073Z,9.98
2023-05-16T00:36:05.023Z,10.12
2023-05-16T00:38:34.177Z,10.21
2023-05-16T00:41:01.865Z,10.30
2023-05-16T00:43:29.942Z,10.38
2023-05-16T00:45:58.338Z,10.37
2023-05-16T00:48:26.417Z,10.42
2023-05-16T00:50:54.683Z,10.47
2023-05-16T00:53:24.169Z,10.40
2023-05-16T00:55:54.433Z,10.29
2023-05-16T00:58:23.784Z,10.03
2023-05-16T01:00:52.709Z,9.87
2023-05-16T01:03:21.259Z,9.61
2023-05-16T01:05:49.798Z,9.57
2023-05-16T01:08:17.463Z,9.41
2023-05-16T01:10:54.715Z,9.34
2023-05-16T01:13:32.621Z,9.27
2023-05-16T01:16:06.161Z,9.17
2023-05-16T01:18:42.696Z,9.12
2023-05-16T01:21:17.195Z,9.11
2023-05-16T01:23:52.930Z,9.14
2023-05-16T01:26:24.180Z,9.14
2023-05-16T01:28:53.352Z,9.21
2023-05-16T01:31:21.778Z,9.23
2023-05-16T01:33:49.973Z,9.22
2023-05-16T01:36:26.378Z,9.28
2023-05-16T01:39:03.507Z,9.30
2023-05-16T01:41:42.298Z,9.32
2023-05-16T01:44:19.512Z,9.36
2023-05-16T01:46:48.443Z,9.38
2023-05-16T01:49:21.454Z,9.37
2023-05-16T01:51:53.071Z,9.35
2023-05-16T01:54:22.884Z,9.37
2023-05-16T01:56:53.676Z,9.35
2023-05-16T01:59:22.995Z,9.27
2023-05-16T02:01:50.882Z,9.29
2023-05-16T02:04:18.883Z,9.12
2023-05-16T02:06:47.183Z,9.13
2023-05-16T02:09:17.730Z,9.06
2023-05-16T02:11:46.808Z,8.84
2023-05-16T02:14:15.817Z,8.68
2023-05-16T02:16:43.564Z,8.57
2023-05-16T02:19:11.215Z,8.56
2023-05-16T02:21:39.944Z,8.52
2023-05-16T02:24:07.664Z,8.45
2023-05-16T02:26:35.592Z,8.45
2023-05-16T02:29:03.402Z,8.51
2023-05-16T02:31:34.683Z,8.55
2023-05-16T02:34:03.255Z,8.59
2023-05-16T02:36:31.355Z,8.58
2023-05-16T02:38:59.069Z,8.64
2023-05-16T02:41:26.786Z,8.76
2023-05-16T02:43:54.670Z,8.91
2023-05-16T02:46:24.159Z,9.05
2023-05-16T02:48:53.684Z,9.13
2023-05-16T02:51:22.769Z,9.19
2023-05-16T02:53:51.039Z,9.22
2023-05-16T02:56:19.318Z,9.23
2023-05-16T02:58:49.336Z,9.23
2023-05-16T03:01:18.073Z,9.24
2023-05-16T03:03:46.241Z,9.21
2023-05-16T03:06:15.400Z,9.19
2023-05-16T03:08:43.246Z,9.19
2023-05-16T03:11:11.004Z,9.16
2023-05-16T03:13:38.649Z,9.22
2023-05-16T03:16:07.124Z,9.35
2023-05-16T03:18:36.677Z,9.48
2023-05-16T03:21:04.516Z,9.58
2023-05-16T03:23:33.762Z,9.71
2023-05-16T03:26:01.523Z,9.81
2023-05-16T03:28:29.267Z,9.78
2023-05-16T03:30:56.947Z,9.84
2023-05-16T03:33:24.720Z,9.88
2023-05-16T03:35:53.234Z,9.89
2023-05-16T03:38:21.533Z,9.83
2023-05-16T03:40:51.446Z,9.82
2023-05-16T03:43:19.044Z,9.70
2023-05-16T03:45:46.827Z,9.64
2023-05-16T03:48:14.718Z,9.65
2023-05-16T03:50:42.409Z,9.57
2023-05-16T03:53:10.771Z,9.49
2023-05-16T03:55:38.653Z,9.43
2023-05-16T03:58:07.845Z,9.29
2023-05-16T04:00:37.166Z,9.25
2023-05-16T04:03:05.098Z,9.04
2023-05-16T04:05:32.997Z,8.87
2023-05-16T04:08:00.680Z,8.95
2023-05-16T04:10:28.511Z,8.85
2023-05-16T04:12:56.121Z,8.66
2023-05-16T04:15:25.288Z,8.69
2023-05-16T04:17:53.113Z,8.71
2023-05-16T04:20:21.255Z,8.68
2023-05-16T04:22:49.184Z,8.69
2023-05-16T04:25:17.146Z,8.72
2023-05-16T04:27:45.135Z,8.71
2023-05-16T04:30:14.151Z,8.80
2023-05-16T04:32:43.385Z,8.77
2023-05-16T04:35:11.384Z,8.82
2023-05-16T04:37:39.368Z,9.00
2023-05-16T04:40:09.827Z,9.08
2023-05-16T04:42:37.741Z,9.11
2023-05-16T04:45:06.729Z,9.21
2023-05-16T04:47:35.117Z,9.23
2023-05-16T04:50:04.579Z,9.34
2023-05-16T04:52:32.298Z,9.44
2023-05-16T04:55:00.485Z,9.51
2023-05-16T04:57:28.365Z,9.60
2023-05-16T04:59:56.401Z,9.70
2023-05-16T05:02:24.338Z,9.79
2023-05-16T05:04:52.352Z,9.85
2023-05-16T05:07:21.369Z,9.92
2023-05-16T05:09:48.988Z,10.00
2023-05-16T05:12:16.929Z,9.95
2023-05-16T05:14:44.667Z,10.15
2023-05-16T05:17:12.570Z,10.00
2023-05-16T05:19:40.319Z,10.09
2023-05-16T05:22:07.961Z,10.18
2023-05-16T05:24:37.085Z,10.30
2023-05-16T05:27:06.139Z,10.46
2023-05-16T05:29:33.890Z,10.58
2023-05-16T05:32:01.644Z,10.72
2023-05-16T05:34:29.552Z,10.80
2023-05-16T05:36:57.544Z,10.95
2023-05-16T05:39:25.534Z,11.18
2023-05-16T05:41:54.479Z,11.28
2023-05-16T05:44:22.293Z,11.50
2023-05-16T05:46:49.941Z,11.46
2023-05-16T05:49:17.693Z,11.58
2023-05-16T05:51:45.303Z,11.48
2023-05-16T05:54:13.437Z,11.98
2023-05-16T05:56:41.055Z,12.30
2023-05-16T05:59:10.134Z,12.59
2023-05-16T06:01:37.766Z,12.83
2023-05-16T06:04:05.888Z,13.08
2023-05-16T06:06:33.630Z,13.34
2023-05-16T06:09:01.237Z,13.59
2023-05-16T06:11:28.979Z,13.84
2023-05-16T06:13:56.624Z,14.05
2023-05-16T06:16:27.442Z,14.24
2023-05-16T06:18:55.141Z,14.29
2023-05-16T06:21:22.962Z,14.29
2023-05-16T06:23:50.752Z,13.98
2023-05-16T06:26:18.651Z,14.03
2023-05-16T06:28:46.241Z,14.06
2023-05-16T06:31:14.432Z,14.10
2023-05-16T06:33:43.463Z,14.12
2023-05-16T06:36:11.598Z,14.17
2023-05-16T06:38:39.194Z,14.16
2023-05-16T06:41:06.856Z,14.16
2023-05-16T06:43:34.511Z,14.22
2023-05-16T06:46:02.206Z,14.23
2023-05-16T06:48:30.206Z,14.22
2023-05-16T06:50:59.324Z,14.27
2023-05-16T06:53:27.340Z,14.31
2023-05-16T06:55:55.080Z,14.34
2023-05-16T06:58:22.715Z,14.37
2023-05-16T07:00:50.640Z,14.44
2023-05-16T07:03:18.628Z,14.50
2023-05-16T07:05:46.409Z,14.65
2023-05-16T07:08:15.438Z,14.68
2023-05-16T07:10:43.072Z,14.83
2023-05-16T07:13:10.898Z,14.90
2023-05-16T07:15:38.701Z,15.06
2023-05-16T07:18:06.532Z,15.08
2023-05-16T07:20:34.284Z,15.13
2023-05-16T07:23:02.048Z,15.33
2023-05-16T07:25:31.127Z,15.61
2023-05-16T07:27:59.127Z,15.57
2023-05-16T07:30:27.124Z,15.73
2023-05-16T07:32:54.876Z,15.95
2023-05-16T07:35:22.723Z,16.12
2023-05-16T07:37:51.367Z,16.31
2023-05-16T07:40:21.311Z,16.41
2023-05-16T07:42:50.431Z,16.38
2023-05-16T07:45:18.361Z,16.45
2023-05-16T07:47:46.411Z,16.55
2023-05-16T07:50:14.210Z,16.64
2023-05-16T07:52:41.902Z,16.74
2023-05-16T07:55:10.629Z,16.77
2023-05-16T07:57:38.320Z,16.86
2023-05-16T08:00:09.687Z,16.94
2023-05-16T08:02:40.137Z,16.97
2023-05-16T08:05:09.132Z,16.96
2023-05-16T08:07:36.788Z,16.91
2023-05-16T08:10:04.803Z,16.93
2023-05-16T08:12:32.498Z,16.92
2023-05-16T08:15:00.498Z,16.94
2023-05-16T08:17:29.607Z,16.95
2023-05-16T08:19:59.199Z,17.00
2023-05-16T08:22:26.977Z,17.00
2023-05-16T08:24:57.711Z,17.03
2023-05-16T08:27:25.511Z,17.00
2023-05-16T08:29:53.508Z,17.08
2023-05-16T08:32:22.203Z,17.08
2023-05-16T08:34:51.213Z,17.15
2023-05-16T08:37:19.181Z,17.20
2023-05-16T08:39:47.007Z,17.26
2023-05-16T08:42:14.765Z,17.32
2023-05-16T08:44:42.417Z,17.33
2023-05-16T08:47:14.803Z,17.41
2023-05-16T08:49:42.916Z,17.41
2023-05-16T08:52:13.320Z,17.42
2023-05-16T08:54:42.138Z,17.42
2023-05-16T08:57:10.861Z,17.40
2023-05-16T08:59:38.894Z,17.42
2023-05-16T09:02:07.293Z,17.42
2023-05-16T09:04:35.219Z,17.43
2023-05-16T09:07:03.033Z,17.41
2023-05-16T09:09:32.053Z,17.41
2023-05-16T09:11:59.882Z,17.31
2023-05-16T09:14:27.500Z,17.17
2023-05-16T09:17:05.161Z,17.08
2023-05-16T09:19:40.413Z,17.10
2023-05-16T09:22:10.097Z,17.20
2023-05-16T09:24:41.031Z,17.37
2023-05-16T09:27:09.487Z,17.33
2023-05-16T09:29:37.523Z,17.71
2023-05-16T09:32:11.941Z,17.99
2023-05-16T09:34:43.033Z,18.19
2023-05-16T09:37:11.238Z,18.19
2023-05-16T09:39:47.598Z,18.31
2023-05-16T09:42:15.799Z,18.43
2023-05-16T09:44:48.120Z,18.55
2023-05-16T09:47:16.476Z,18.65
2023-05-16T09:49:45.439Z,18.73
2023-05-16T09:52:14.040Z,18.79
2023-05-16T09:54:43.424Z,18.77
2023-05-16T09:57:11.486Z,18.69
2023-05-16T09:59:40.570Z,18.56
2023-05-16T10:02:08.847Z,18.50
2023-05-16T10:04:36.681Z,18.43
2023-05-16T10:07:05.415Z,18.29
2023-05-16T10:09:34.505Z,18.18
2023-05-16T10:12:06.475Z,18.11
2023-05-16T10:14:36.559Z,17.98
2023-05-16T10:17:06.692Z,17.81
2023-05-16T10:19:38.507Z,17.54
2023-05-16T10:22:07.581Z,17.61
2023-05-16T10:24:40.454Z,17.57
2023-05-16T10:27:10.917Z,17.53
2023-05-16T10:29:50.427Z,17.57
2023-05-16T10:32:24.734Z,17.46
2023-05-16T10:34:53.160Z,17.45
2023-05-16T10:37:20.829Z,17.35
2023-05-16T10:39:49.660Z,17.33
2023-05-16T10:42:20.589Z,17.31
2023-05-16T10:45:01.924Z,17.23
2023-05-16T10:47:33.004Z,17.23
2023-05-16T10:50:01.035Z,17.16
2023-05-16T10:52:34.722Z,17.15
2023-05-16T10:55:04.717Z,17.12
2023-05-16T10:57:36.478Z,17.13
2023-05-16T11:00:09.461Z,17.15
2023-05-16T11:02:42.914Z,17.17
2023-05-16T11:05:15.169Z,17.19
2023-05-16T11:07:42.828Z,17.20
2023-05-16T11:10:11.754Z,17.20
2023-05-16T11:12:52.444Z,17.15
2023-05-16T11:15:22.266Z,17.05
2023-05-16T11:17:50.073Z,16.85
2023-05-16T11:20:27.275Z,16.66
2023-05-16T11:23:20.656Z,16.49
2023-05-16T11:25:51.001Z,16.35
2023-05-16T11:28:20.807Z,16.15
2023-05-16T11:30:51.121Z,16.03
2023-05-16T11:33:19.795Z,15.97
2023-05-16T11:36:14.606Z,15.70
2023-05-16T11:38:44.414Z,15.69
2023-05-16T11:41:12.341Z,15.69
2023-05-16T11:43:43.360Z,15.54
2023-05-16T11:46:12.945Z,15.50
2023-05-16T11:48:41.287Z,15.35
2023-05-16T11:51:10.606Z,15.20
2023-05-16T11:53:39.655Z,15.10
2023-05-16T11:56:09.162Z,14.98
2023-05-16T11:58:38.361Z,14.90
2023-05-16T12:01:08.266Z,14.86
2023-05-16T12:03:37.053Z,14.85
2023-05-16T12:06:05.941Z,14.78
2023-05-16T12:08:33.662Z,14.68
2023-05-16T12:11:01.592Z,14.63
2023-05-16T12:13:29.437Z,14.67
2023-05-16T12:15:57.347Z,14.73
2023-05-16T12:18:26.556Z,14.86
2023-05-16T12:20:54.407Z,14.99
2023-05-16T12:23:22.167Z,14.98
2023-05-16T12:25:49.976Z,15.26
2023-05-16T12:28:17.707Z,15.45
2023-05-16T12:30:48.019Z,15.66
2023-05-16T12:33:17.338Z,15.93
2023-05-16T12:35:48.100Z,16.19
2023-05-16T12:38:17.510Z,16.45
2023-05-16T12:40:47.475Z,16.64
2023-05-16T12:43:16.166Z,15.75
2023-05-16T12:45:44.557Z,15.92
2023-05-16T12:48:14.219Z,15.50
2023-05-16T12:50:42.936Z,15.12
2023-05-16T12:53:14.931Z,15.21
2023-05-16T12:55:43.931Z,15.18
2023-05-16T12:58:12.786Z,14.90
2023-05-16T13:00:40.588Z,15.12
2023-05-16T13:03:08.798Z,15.11
2023-05-16T13:05:36.935Z,15.17
2023-05-16T13:08:05.254Z,15.28
2023-05-16T13:10:34.360Z,15.30
2023-05-16T13:13:02.597Z,15.41
2023-05-16T13:15:30.448Z,15.47
2023-05-16T13:17:59.107Z,15.36
2023-05-16T13:20:26.976Z,15.46
2023-05-16T13:22:55.874Z,15.36
2023-05-16T13:25:23.490Z,15.42
2023-05-16T13:27:52.667Z,15.34
2023-05-16T13:30:22.422Z,15.32
2023-05-16T13:32:50.443Z,15.32
2023-05-16T13:35:18.168Z,15.31
2023-05-16T13:37:46.421Z,15.29
2023-05-16T13:40:14.278Z,15.13
2023-05-16T13:42:42.038Z,15.13
2023-05-16T13:45:11.257Z,15.13
2023-05-16T13:47:39.089Z,15.13
2023-05-16T13:50:10.298Z,15.14
2023-05-16T13:52:38.495Z,15.09
2023-05-16T13:55:07.220Z,15.08
2023-05-16T13:57:34.913Z,15.08
2023-05-16T14:00:31.176Z,15.03
2023-05-16T14:02:54.296Z,14.99
2023-05-16T14:05:22.437Z,14.62
2023-05-16T14:07:50.453Z,14.50
2023-05-16T14:10:18.329Z,14.43
2023-05-16T14:12:46.231Z,14.29
2023-05-16T14:15:13.878Z,13.93
2023-05-16T14:17:41.613Z,14.08
2023-05-16T14:20:11.929Z,14.13
2023-05-16T14:22:39.678Z,14.20
2023-05-16T14:25:08.517Z,14.30
2023-05-16T14:27:36.442Z,14.36
2023-05-16T14:30:04.829Z,14.52
2023-05-16T14:32:32.891Z,14.56
2023-05-16T14:35:00.636Z,14.57
2023-05-16T14:37:29.635Z,14.63
2023-05-16T14:39:57.343Z,14.64
2023-05-16T14:42:24.989Z,14.65
2023-05-16T14:44:52.688Z,14.70
2023-05-16T14:47:20.466Z,14.67
2023-05-16T14:49:48.318Z,14.76
2023-05-16T14:52:16.373Z,14.76
2023-05-16T14:54:45.392Z,14.82
2023-05-16T14:57:13.082Z,14.88
2023-05-16T14:59:40.893Z,14.94
2023-05-16T15:02:08.680Z,14.97
2023-05-16T15:04:38.721Z,15.01
2023-05-16T15:07:07.368Z,15.02
2023-05-16T15:09:35.234Z,15.04
2023-05-16T15:12:04.737Z,15.07
2023-05-16T15:14:32.577Z,15.10
2023-05-16T15:17:00.458Z,15.10
2023-05-16T15:19:28.520Z,15.04
2023-05-16T15:21:56.296Z,15.00
2023-05-16T15:24:24.386Z,14.94
2023-05-16T15:26:52.069Z,14.87
2023-05-16T15:29:21.322Z,14.80
2023-05-16T15:31:48.989Z,14.73
2023-05-16T15:34:16.652Z,14.60
2023-05-16T15:36:44.290Z,14.51
2023-05-16T15:39:12.049Z,14.47
2023-05-16T15:42:01.066Z,14.37
2023-05-16T15:44:28.842Z,14.32
2023-05-16T15:46:56.660Z,14.16
2023-05-16T15:49:24.427Z,14.09
2023-05-16T15:51:52.598Z,14.04
2023-05-16T15:54:20.796Z,14.00
2023-05-16T15:56:48.588Z,13.96
2023-05-16T15:59:17.361Z,13.93
2023-05-16T16:01:46.608Z,13.88
2023-05-16T16:04:14.314Z,13.87
2023-05-16T16:06:42.384Z,13.84
2023-05-16T16:09:11.079Z,13.83
2023-05-16T16:11:39.184Z,13.80
2023-05-16T16:14:08.521Z,13.81
2023-05-16T16:16:37.331Z,13.82
2023-05-16T16:19:06.472Z,13.81
2023-05-16T16:21:34.700Z,13.75
2023-05-16T16:24:02.360Z,13.50
2023-05-16T16:26:31.930Z,13.31
2023-05-16T16:28:59.692Z,13.24
2023-05-16T16:31:27.639Z,13.41
2023-05-16T16:33:55.391Z,13.40
2023-05-16T16:36:24.603Z,13.35
2023-05-16T16:38:52.391Z,13.43
2023-05-16T16:41:20.208Z,13.47
2023-05-16T16:43:47.955Z,13.47
2023-05-16T16:46:15.699Z,13.54
2023-05-16T16:48:43.641Z,13.58
2023-05-16T16:51:11.274Z,13.62
2023-05-16T16:53:41.193Z,13.64
2023-05-16T16:56:08.872Z,13.65
2023-05-16T16:58:36.950Z,13.71
2023-05-16T17:01:04.976Z,13.72
2023-05-16T17:03:32.882Z,13.73
2023-05-16T17:06:00.630Z,13.67
2023-05-16T17:08:28.444Z,13.66
2023-05-16T17:10:57.436Z,13.63
2023-05-16T17:13:25.349Z,13.65
2023-05-16T17:15:53.143Z,13.63
2023-05-16T17:18:21.904Z,13.61
2023-05-16T17:20:49.615Z,13.62
2023-05-16T17:23:17.262Z,13.62
2023-05-16T17:25:45.330Z,13.60
2023-05-16T17:28:14.437Z,13.62
2023-05-16T17:30:42.783Z,13.56
2023-05-16T17:33:10.501Z,13.56
2023-05-16T17:35:38.535Z,13.57
2023-05-16T17:38:06.221Z,13.55
2023-05-16T17:40:34.021Z,13.54
2023-05-16T17:43:01.712Z,13.48
2023-05-16T17:45:31.246Z,13.48
2023-05-16T17:47:59.173Z,13.42
2023-05-16T17:50:26.893Z,13.42
2023-05-16T17:52:54.604Z,13.37
2023-05-16T17:55:23.106Z,13.31
2023-05-16T17:57:50.840Z,13.38
2023-05-16T18:00:19.542Z,13.34
2023-05-16T18:02:49.312Z,13.30
2023-05-16T18:05:17.430Z,13.26
2023-05-16T18:07:45.323Z,13.18
2023-05-16T18:10:13.659Z,13.12
2023-05-16T18:12:41.954Z,13.10
2023-05-16T18:15:10.765Z,12.97
2023-05-16T18:17:38.857Z,12.99
2023-05-16T18:20:12.283Z,12.95
2023-05-16T18:22:40.758Z,12.94
2023-05-16T18:25:10.615Z,12.97
2023-05-16T18:27:38.632Z,12.88
2023-05-16T18:30:08.374Z,12.86
2023-05-16T18:32:36.961Z,12.80
2023-05-16T18:35:04.869Z,12.70
2023-05-16T18:37:34.096Z,12.68
2023-05-16T18:40:01.800Z,12.59
2023-05-16T18:42:30.122Z,12.53
2023-05-16T18:44:57.781Z,12.51
2023-05-16T18:47:25.783Z,12.52
2023-05-16T18:49:54.605Z,12.48
2023-05-16T18:52:22.402Z,12.40
2023-05-16T18:54:51.452Z,12.33
2023-05-16T18:57:19.118Z,12.32
2023-05-16T18:59:46.953Z,12.27
2023-05-16T19:02:14.610Z,12.32
2023-05-16T19:04:42.487Z,12.23
2023-05-16T19:07:10.225Z,12.23
2023-05-16T19:09:37.891Z,12.21
2023-05-16T19:12:07.546Z,12.12
2023-05-16T19:14:35.350Z,12.11
2023-05-16T19:17:03.785Z,12.10
2023-05-16T19:19:32.432Z,12.15
2023-05-16T19:22:00.209Z,12.08
2023-05-16T19:24:28.123Z,12.14
2023-05-16T19:26:55.778Z,12.16
2023-05-16T19:29:25.044Z,12.16
2023-05-16T19:31:52.704Z,12.12
2023-05-16T19:34:21.251Z,12.11
2023-05-16T19:36:48.911Z,12.03
2023-05-16T19:39:16.677Z,12.05
2023-05-16T19:41:44.520Z,12.07
2023-05-16T19:44:12.641Z,12.05
2023-05-16T19:46:41.633Z,12.02
2023-05-16T19:49:10.746Z,12.03
2023-05-16T19:51:41.735Z,12.04
2023-05-16T19:54:10.083Z,12.04
2023-05-16T19:56:37.894Z,11.98
2023-05-16T19:59:05.546Z,11.92
2023-05-16T20:01:33.375Z,11.86
2023-05-16T20:04:02.533Z,11.85
2023-05-16T20:06:31.522Z,11.91
2023-05-16T20:08:59.229Z,11.80
2023-05-16T20:11:27.166Z,11.85
2023-05-16T20:13:55.622Z,11.84
2023-05-16T20:16:23.412Z,11.79
2023-05-16T20:18:51.493Z,11.77
2023-05-16T20:21:20.640Z,11.75
2023-05-16T20:23:48.407Z,11.76
2023-05-16T20:26:16.138Z,11.78
2023-05-16T20:28:43.923Z,11.79
2023-05-16T20:31:11.600Z,11.76
2023-05-16T20:33:39.553Z,11.72
2023-05-16T20:36:07.422Z,11.68
2023-05-16T20:38:38.131Z,11.65
2023-05-16T20:41:05.818Z,11.63
2023-05-16T20:43:33.653Z,11.63
2023-05-16T20:46:01.319Z,11.63
2023-05-16T20:48:29.069Z,11.60
2023-05-16T20:50:57.015Z,11.59
2023-05-16T20:53:24.863Z,11.45
2023-05-16T20:55:53.857Z,11.43
2023-05-16T20:58:21.633Z,11.31
2023-05-16T21:00:49.447Z,11.27
2023-05-16T21:03:17.102Z,11.24
2023-05-16T21:05:44.853Z,11.20
2023-05-16T21:08:12.587Z,11.18
2023-05-16T21:10:40.514Z,11.05
2023-05-16T21:13:09.548Z,11.04
2023-05-16T21:15:38.452Z,11.02
2023-05-16T21:18:06.338Z,10.97
2023-05-16T21:20:34.410Z,10.87
2023-05-16T21:23:02.086Z,10.88
2023-05-16T21:25:30.028Z,10.82
2023-05-16T21:27:58.326Z,10.77
2023-05-16T21:30:27.463Z,10.76
2023-05-16T21:32:55.142Z,10.68
2023-05-16T21:35:22.861Z,10.59
2023-05-16T21:37:50.596Z,10.57
2023-05-16T21:40:24.878Z,10.48
2023-05-16T21:42:53.209Z,10.46
2023-05-16T21:45:21.167Z,10.41
2023-05-16T21:47:50.469Z,10.42
2023-05-16T21:50:18.501Z,10.41
2023-05-16T21:52:46.178Z,10.41
2023-05-16T21:55:14.181Z,10.42
2023-05-16T21:57:41.986Z,10.42
2023-05-16T22:00:10.680Z,10.43
2023-05-16T22:02:38.858Z,10.43
2023-05-16T22:05:09.295Z,10.44
2023-05-16T22:07:37.570Z,10.49
2023-05-16T22:10:07.311Z,10.50
2023-05-16T22:12:35.021Z,10.52
2023-05-16T22:15:02.767Z,10.57
2023-05-16T22:17:30.633Z,10.56
2023-05-16T22:19:58.380Z,10.61
2023-05-16T22:22:27.451Z,10.59
2023-05-16T22:24:55.173Z,10.61
2023-05-16T22:27:22.830Z,10.62
2023-05-16T22:29:50.735Z,10.62
2023-05-16T22:32:18.374Z,10.66
2023-05-16T22:34:46.153Z,10.63
2023-05-16T22:37:13.782Z,10.63
2023-05-16T22:39:42.967Z,10.66
2023-05-16T22:42:10.649Z,10.64
2023-05-16T22:44:38.334Z,10.59
2023-05-16T22:47:06.667Z,10.58
2023-05-16T22:49:34.433Z,10.56
2023-05-16T22:52:02.109Z,10.59
2023-05-16T22:54:29.894Z,10.61
2023-05-16T22:56:58.888Z,10.62
2023-05-16T22:59:26.620Z,10.61
2023-05-16T23:01:54.297Z,10.63
2023-05-16T23:04:21.965Z,10.63
2023-05-16T23:06:50.040Z,10.53
2023-05-16T23:09:17.683Z,10.56
2023-05-16T23:11:45.787Z,10.52
2023-05-16T23:14:14.755Z,10.53
2023-05-16T23:16:42.523Z,10.44
2023-05-16T23:19:10.383Z,10.47
2023-05-16T23:21:40.017Z,10.51
2023-05-16T23:24:08.230Z,10.53
2023-05-16T23:26:36.294Z,10.48
2023-05-16T23:29:04.091Z,10.48
2023-05-16T23:31:33.376Z,10.50
2023-05-16T23:34:01.121Z,10.46
2023-05-16T23:36:28.980Z,10.43
2023-05-16T23:38:56.734Z,10.40
2023-05-16T23:41:24.408Z,10.38
2023-05-16T23:43:52.162Z,10.23
2023-05-16T23:46:19.795Z,10.26
2023-05-16T23:48:49.007Z,10.24
2023-05-16T23:51:16.696Z,10.23
2023-05-16T23:53:44.563Z,10.18
2023-05-16T23:56:12.606Z,10.13
2023-05-16T23:58:40.263Z,10.15
